Time;durP1;ratioP1;P1;durP2;ratioP2;P2;SDS_P1;SDS_P2;PMS_P1;PMS_P2;Temp;Humidity;BMP_temperature;BMP_pressure;BME280_temperature;BME280_humidity;BME280_pressure;Samples;Min_cycle;Max_cycle;Signal;HPM_P1;HPM_P2
2021/05/24 00:01:03;;;;;;;7.03;4.37;;;;;;;8.11;87.84;98667.25;4879280;28;102655;-76
2021/05/24 00:03:31;;;;;;;6.67;4.60;;;;;;;8.11;88.10;98668.06;4868607;28;105400;-76
2021/05/24 00:05:59;;;;;;;5.87;5.27;;;;;;;8.12;86.82;98668.91;4867988;28;106339;-76
2021/05/24 00:08:27;;;;;;;6.23;5.63;;;;;;;7.94;88.09;98654.28;4887635;28;102550;-76
2021/05/24 00:10:55;;;;;;;5.10;4.67;;;;;;;7.89;89.01;98646.66;4867769;28;102499;-76
2021/05/24 00:13:24;;;;;;;4.53;3.70;;;;;;;8.08;87.50;98646.38;4866314;28;102933;-75
2021/05/24 00:15:53;;;;;;;3.43;3.10;;;;;;;8.00;87.22;98638.94;4850892;28;103932;-75
2021/05/24 00:18:21;;;;;;;6.63;2.90;;;;;;;7.78;88.54;98627.22;4868183;28;103007;-76
2021/05/24 00:20:51;;;;;;;4.70;2.70;;;;;;;7.80;90.00;98623.59;4879424;28;102540;-76
2021/05/24 00:23:19;;;;;;;2.37;2.13;;;;;;;7.95;88.06;98629.66;4887457;28;102553;-76
2021/05/24 00:25:47;;;;;;;2.77;2.50;;;;;;;7.78;89.38;98616.72;4868531;28;103116;-76
2021/05/24 00:28:15;;;;;;;3.10;2.17;;;;;;;7.81;89.73;98606.84;4860620;28;103052;-76
2021/05/24 00:30:45;;;;;;;4.27;2.00;;;;;;;8.00;88.54;98620.53;4887745;28;103220;-76
2021/05/24 00:33:13;;;;;;;2.53;1.87;;;;;;;8.16;87.39;98623.06;4898362;28;103106;-75
2021/05/24 00:35:42;;;;;;;6.77;3.93;;;;;;;8.16;86.35;98628.31;4893265;28;102575;-76
2021/05/24 00:38:10;;;;;;;61.40;29.17;;;;;;;7.94;86.98;98620.09;4874742;28;103100;-76
2021/05/24 00:40:39;;;;;;;33.30;18.40;;;;;;;7.47;89.28;98615.97;4893839;28;102548;-76
2021/05/24 00:43:08;;;;;;;22.53;12.77;;;;;;;7.77;89.26;98617.66;4874400;28;102885;-76
2021/05/24 00:45:40;;;;;;;14.73;9.83;;;;;;;7.79;88.17;98623.66;4890776;28;102420;-76
2021/05/24 00:48:09;;;;;;;16.57;9.83;;;;;;;7.42;90.55;98615.41;4898177;28;102709;-76
2021/05/24 00:50:37;;;;;;;11.47;8.30;;;;;;;6.88;94.27;98603.78;4888340;28;102704;-76
2021/05/24 00:53:05;;;;;;;9.93;6.20;;;;;;;7.08;94.29;98592.09;4897621;28;102489;-77
2021/05/24 00:55:33;;;;;;;7.10;5.60;;;;;;;7.26;93.09;98588.38;4875764;28;103111;-76
2021/05/24 00:58:02;;;;;;;5.73;4.70;;;;;;;7.09;94.52;98580.66;4870147;28;102519;-76
2021/05/24 01:00:36;;;;;;;4.27;3.20;;;;;;;7.35;94.29;98577.31;4872567;28;102623;-76
2021/05/24 01:03:05;;;;;;;6.77;3.73;;;;;;;7.60;91.85;98576.66;4890572;28;102699;-76
2021/05/24 01:05:35;;;;;;;4.23;3.30;;;;;;;7.78;89.89;98578.09;4883400;28;102572;-76
2021/05/24 01:08:03;;;;;;;4.00;2.97;;;;;;;7.64;90.55;98572.00;4856008;28;103228;-76
2021/05/24 01:10:31;;;;;;;4.50;3.37;;;;;;;7.45;92.78;98572.31;4867144;28;102551;-76
2021/05/24 01:13:00;;;;;;;5.33;3.30;;;;;;;7.56;92.53;98575.97;4878469;28;102940;-76
2021/05/24 01:15:28;;;;;;;3.87;3.13;;;;;;;7.56;92.23;98581.25;4873543;28;103507;-76
2021/05/24 01:17:56;;;;;;;2.57;2.30;;;;;;;7.76;91.61;98581.78;4890809;28;103489;-76
2021/05/24 01:20:26;;;;;;;3.87;2.40;;;;;;;7.73;91.53;98572.31;4891796;28;103369;-76
2021/05/24 01:23:06;;;;;;;6.13;3.20;;;;;;;7.43;94.28;98568.97;4867630;28;105690;-76
2021/05/24 01:25:37;;;;;;;4.43;3.30;;;;;;;7.54;93.60;98572.63;4892302;28;102996;-75
2021/05/24 01:28:06;;;;;;;4.33;2.97;;;;;;;7.40;94.74;98564.72;4873368;28;103685;-76
2021/05/24 01:30:34;;;;;;;4.93;2.50;;;;;;;7.50;94.01;98560.59;4880169;28;102947;-76
2021/05/24 01:33:02;;;;;;;2.93;2.40;;;;;;;7.72;92.52;98556.63;4866489;28;105007;-76
2021/05/24 01:35:31;;;;;;;2.10;1.90;;;;;;;7.86;91.42;98551.34;4883195;28;102408;-76
2021/05/24 01:37:59;;;;;;;3.70;2.37;;;;;;;7.89;90.61;98540.59;4887239;28;102565;-76
2021/05/24 01:40:27;;;;;;;3.10;2.80;;;;;;;7.43;93.19;98535.63;4887926;28;103012;-76
2021/05/24 01:42:57;;;;;;;3.93;2.60;;;;;;;7.44;94.27;98525.94;4887536;28;102381;-76
2021/05/24 01:45:25;;;;;;;4.03;2.63;;;;;;;7.51;93.96;98530.75;4880325;28;103273;-76
2021/05/24 01:47:53;;;;;;;2.40;2.20;;;;;;;7.77;92.01;98541.41;4890120;28;102482;-76
2021/05/24 01:50:23;;;;;;;3.47;2.63;;;;;;;7.62;91.31;98530.06;4890660;28;103204;-76
2021/05/24 01:52:51;;;;;;;2.40;2.20;;;;;;;7.65;91.95;98542.16;4889528;28;102424;-76
2021/05/24 01:55:20;;;;;;;2.10;1.90;;;;;;;7.68;91.35;98531.47;4889080;28;104879;-76
2021/05/24 01:57:47;;;;;;;3.23;2.00;;;;;;;7.57;91.79;98530.38;4890511;28;102503;-76
2021/05/24 02:00:17;;;;;;;3.30;2.37;;;;;;;7.51;92.56;98529.88;4892397;28;102484;-76
2021/05/24 02:02:46;;;;;;;3.93;2.30;;;;;;;7.60;92.38;98529.31;4889476;28;102457;-76
2021/05/24 02:05:16;;;;;;;4.70;2.50;;;;;;;7.64;92.28;98532.56;4891266;28;102367;-76
2021/05/24 02:07:44;;;;;;;3.63;2.30;;;;;;;7.76;91.62;98535.28;4904758;28;102574;-76
2021/05/24 02:10:16;;;;;;;3.20;2.70;;;;;;;7.84;91.11;98532.16;4875068;28;102578;-76
2021/05/24 02:12:45;;;;;;;4.50;2.53;;;;;;;7.92;90.33;98545.66;4874934;28;102671;-76
2021/05/24 02:15:16;;;;;;;2.93;2.27;;;;;;;7.93;90.55;98536.84;4892164;28;102945;-76
2021/05/24 02:17:44;;;;;;;3.70;2.53;;;;;;;7.97;89.96;98522.56;4902270;28;102799;-76
2021/05/24 02:20:16;;;;;;;2.77;2.53;;;;;;;8.01;89.10;98524.03;4865150;28;102871;-75
2021/05/24 02:22:43;;;;;;;6.27;4.50;;;;;;;7.98;88.08;98529.50;4872637;28;102979;-76
2021/05/24 02:25:12;;;;;;;5.97;3.30;;;;;;;7.77;88.95;98536.16;4871802;28;103230;-75
2021/05/24 02:27:40;;;;;;;4.37;2.93;;;;;;;7.78;88.51;98537.81;4876777;28;104051;-75
2021/05/24 02:30:11;;;;;;;4.03;3.60;;;;;;;7.71;89.63;98518.97;4891558;28;102446;-75
2021/05/24 02:32:38;;;;;;;4.87;3.73;;;;;;;7.32;92.65;98514.44;4891092;28;103786;-75
2021/05/24 02:35:09;;;;;;;2.70;2.43;;;;;;;7.46;92.71;98505.69;4890797;28;103051;-77
2021/05/24 02:37:37;;;;;;;6.17;3.17;;;;;;;7.13;93.49;98503.34;4887443;28;102642;-78
2021/05/24 02:40:07;;;;;;;4.50;3.17;;;;;;;6.98;95.11;98485.91;4869444;28;102865;-78
2021/05/24 02:42:35;;;;;;;5.73;3.40;;;;;;;6.99;95.25;98474.44;4855202;28;106445;-78
2021/05/24 02:45:04;;;;;;;3.83;2.47;;;;;;;7.25;95.19;98489.44;4870276;28;107368;-78
2021/05/24 02:47:33;;;;;;;3.43;2.27;;;;;;;7.50;93.38;98486.13;4869980;28;102891;-78
2021/05/24 02:50:04;;;;;;;3.60;2.57;;;;;;;7.61;91.81;98477.59;4871878;28;103271;-78
2021/05/24 02:52:31;;;;;;;3.50;2.10;;;;;;;7.57;91.88;98483.03;4887392;28;102488;-77
2021/05/24 02:54:59;;;;;;;3.73;2.90;;;;;;;7.33;92.91;98479.31;4869332;28;103274;-78
2021/05/24 02:57:26;;;;;;;5.40;3.23;;;;;;;7.36;93.17;98473.84;4868724;28;102972;-78
2021/05/24 02:59:55;;;;;;;5.50;2.83;;;;;;;7.43;91.98;98463.81;4837128;28;102631;-78
2021/05/24 03:02:26;;;;;;;3.03;2.27;;;;;;;7.54;91.49;98472.72;4855215;28;103435;-77
2021/05/24 03:04:55;;;;;;;3.00;2.63;;;;;;;7.66;90.04;98470.25;4844829;28;104920;-78
2021/05/24 03:07:23;;;;;;;3.93;3.37;;;;;;;7.61;91.10;98477.59;4854669;28;102669;-78
2021/05/24 03:09:51;;;;;;;4.27;3.37;;;;;;;7.50;91.89;98479.09;4852438;28;102539;-78
2021/05/24 03:12:18;;;;;;;3.67;2.10;;;;;;;7.59;91.07;98478.50;4888689;28;103358;-77
2021/05/24 03:14:46;;;;;;;5.17;3.80;;;;;;;7.61;90.69;98488.91;4871277;28;104132;-78
2021/05/24 03:17:14;;;;;;;6.10;3.30;;;;;;;7.68;90.36;98484.97;4860133;28;102499;-78
2021/05/24 03:19:41;;;;;;;5.37;4.03;;;;;;;7.48;90.89;98473.09;4869249;28;103115;-78
2021/05/24 03:22:10;;;;;;;4.90;4.00;;;;;;;6.97;95.47;98473.69;4851945;28;102420;-78
2021/05/24 03:24:38;;;;;;;3.17;2.87;;;;;;;7.25;95.75;98476.31;4872434;28;102634;-78
2021/05/24 03:27:06;;;;;;;3.13;2.57;;;;;;;7.41;93.80;98492.81;4879170;28;102492;-78
2021/05/24 03:29:34;;;;;;;5.27;3.60;;;;;;;7.55;92.15;98494.59;4869441;28;102509;-78
2021/05/24 03:32:01;;;;;;;5.23;3.73;;;;;;;7.41;92.23;98486.72;4868905;28;102454;-78
2021/05/24 03:34:29;;;;;;;5.57;3.70;;;;;;;7.24;94.07;98476.44;4852335;28;104619;-78
2021/05/24 03:36:56;;;;;;;4.17;3.43;;;;;;;7.20;95.65;98470.50;4868240;28;102624;-78
2021/05/24 03:39:25;;;;;;;4.07;3.10;;;;;;;7.43;94.26;98483.06;4878079;28;104819;-78
2021/05/24 03:41:53;;;;;;;4.17;3.53;;;;;;;7.39;94.24;98484.19;4860762;28;102529;-78
2021/05/24 03:44:20;;;;;;;4.30;2.67;;;;;;;7.54;93.60;98487.63;4851163;28;104840;-78
2021/05/24 03:46:48;;;;;;;3.70;3.33;;;;;;;7.46;93.57;98488.13;4868256;28;103121;-78
2021/05/24 03:49:15;;;;;;;3.57;3.20;;;;;;;7.31;95.26;98481.19;4886841;28;103145;-78
2021/05/24 03:51:43;;;;;;;4.37;3.40;;;;;;;7.25;95.57;98471.06;4868027;28;102639;-78
2021/05/24 03:54:10;;;;;;;3.90;3.30;;;;;;;7.31;95.55;98478.56;4867757;28;103102;-77
2021/05/24 03:56:39;;;;;;;4.63;3.10;;;;;;;7.31;95.41;98469.84;4833619;28;102408;-79
2021/05/24 03:59:07;;;;;;;4.43;3.10;;;;;;;7.35;95.38;98466.94;4868166;28;102626;-78
2021/05/24 04:01:37;;;;;;;3.53;2.83;;;;;;;7.34;95.78;98459.97;4867381;28;103263;-78
2021/05/24 04:04:06;;;;;;;5.07;3.13;;;;;;;7.40;95.61;98472.75;4868749;28;102588;-78
2021/05/24 04:06:34;;;;;;;3.63;3.00;;;;;;;7.31;96.29;98460.16;4884435;28;103058;-78
2021/05/24 04:09:03;;;;;;;5.67;3.63;;;;;;;7.10;97.16;98456.28;4867516;28;102506;-78
2021/05/24 04:11:31;;;;;;;3.90;3.10;;;;;;;7.15;97.59;98467.34;4886256;28;102503;-78
2021/05/24 04:13:59;;;;;;;5.97;3.20;;;;;;;7.28;97.53;98477.91;4872799;28;104674;-78
2021/05/24 04:16:27;;;;;;;4.83;3.17;;;;;;;7.26;96.75;98467.50;4883946;28;102664;-78
2021/05/24 04:18:55;;;;;;;3.70;3.27;;;;;;;7.27;97.53;98463.91;4868127;28;102474;-78
2021/05/24 04:21:22;;;;;;;4.50;3.03;;;;;;;7.28;97.21;98465.63;4869573;28;102963;-77
2021/05/24 04:23:50;;;;;;;4.43;3.27;;;;;;;7.37;97.00;98465.03;4871086;28;102713;-77
2021/05/24 04:26:18;;;;;;;4.00;3.23;;;;;;;7.45;96.56;98456.66;4853271;28;102557;-77
2021/05/24 04:28:45;;;;;;;5.83;3.30;;;;;;;7.47;96.24;98468.78;4887651;28;102735;-76
2021/05/24 04:31:14;;;;;;;6.00;3.30;;;;;;;7.58;95.93;98465.44;4869186;28;102486;-76
2021/05/24 04:33:42;;;;;;;4.83;3.23;;;;;;;7.56;95.99;98470.81;4857452;28;102597;-77
2021/05/24 04:36:10;;;;;;;4.63;2.83;;;;;;;7.55;96.28;98473.56;4880539;28;102628;-77
2021/05/24 04:38:37;;;;;;;3.97;2.93;;;;;;;7.46;96.49;98477.63;4884793;28;103198;-76
2021/05/24 04:41:05;;;;;;;3.07;2.77;;;;;;;7.68;96.04;98473.59;4886459;28;102530;-76
2021/05/24 04:43:35;;;;;;;4.90;3.00;;;;;;;7.63;95.58;98470.44;4885575;28;102568;-77
2021/05/24 04:46:03;;;;;;;4.57;3.27;;;;;;;7.72;95.50;98454.06;4885631;28;102516;-77
2021/05/24 04:48:33;;;;;;;5.50;3.23;;;;;;;7.75;94.99;98446.00;4862953;28;102603;-77
2021/05/24 04:51:00;;;;;;;3.97;3.20;;;;;;;7.85;94.89;98457.59;4879580;28;103295;-77
2021/05/24 04:53:31;;;;;;;3.43;3.03;;;;;;;8.05;93.95;98444.81;4858748;28;103419;-77
2021/05/24 04:55:59;;;;;;;3.40;2.80;;;;;;;8.27;92.98;98452.16;4885540;28;102350;-77
2021/05/24 04:58:27;;;;;;;3.43;2.40;;;;;;;8.42;91.81;98451.13;4876922;28;102513;-76
2021/05/24 05:00:57;;;;;;;3.10;2.80;;;;;;;8.14;93.34;98440.72;4868615;28;102546;-77
2021/05/24 05:03:26;;;;;;;3.50;3.13;;;;;;;8.26;94.29;98445.16;4868002;28;106234;-76
2021/05/24 05:05:55;;;;;;;3.57;2.70;;;;;;;8.49;93.04;98441.03;4875110;28;102459;-77
2021/05/24 05:08:23;;;;;;;4.97;3.00;;;;;;;8.56;91.87;98448.41;4866569;28;102656;-79
2021/05/24 05:10:50;;;;;;;4.60;2.97;;;;;;;8.60;91.34;98452.53;4864048;28;102529;-77
2021/05/24 05:13:18;;;;;;;2.47;2.27;;;;;;;8.80;91.53;98450.31;4885877;28;102459;-77
2021/05/24 05:15:45;;;;;;;3.17;2.80;;;;;;;8.97;90.13;98456.09;4869792;28;102640;-77
2021/05/24 05:18:13;;;;;;;5.67;2.70;;;;;;;9.09;89.07;98441.22;4872010;28;102526;-78
2021/05/24 05:20:40;;;;;;;3.57;2.30;;;;;;;9.25;89.03;98452.38;4869084;28;102474;-77
2021/05/24 05:23:09;;;;;;;3.27;2.40;;;;;;;9.40;88.89;98434.63;4864098;28;102630;-76
2021/05/24 05:25:37;;;;;;;4.30;2.13;;;;;;;9.53;88.88;98436.28;4877318;28;102653;-78
2021/05/24 05:28:04;;;;;;;3.90;2.30;;;;;;;9.61;88.06;98423.38;4886400;28;102651;-77
2021/05/24 05:30:32;;;;;;;2.37;2.17;;;;;;;9.66;87.15;98426.50;4889701;28;103005;-77
2021/05/24 05:32:59;;;;;;;3.83;2.90;;;;;;;9.66;87.43;98426.50;4885592;28;102346;-77
2021/05/24 05:35:33;;;;;;;4.03;3.00;;;;;;;9.64;88.01;98433.69;4871346;28;102529;-77
2021/05/24 05:38:01;;;;;;;5.23;3.50;;;;;;;9.54;88.72;98424.78;4853774;28;102671;-76
2021/05/24 05:40:31;;;;;;;3.40;2.37;;;;;;;9.71;88.96;98432.28;4891655;28;103389;-77
2021/05/24 05:43:01;;;;;;;3.33;2.87;;;;;;;9.78;89.24;98430.91;4887335;28;103015;-77
2021/05/24 05:45:29;;;;;;;3.00;2.70;;;;;;;9.93;88.82;98431.56;4858768;28;102667;-77
2021/05/24 05:47:58;;;;;;;3.83;3.43;;;;;;;9.74;89.18;98428.59;4890909;28;102548;-77
2021/05/24 05:50:25;;;;;;;4.00;3.17;;;;;;;9.72;86.50;98420.78;4890382;28;104523;-76
2021/05/24 05:52:53;;;;;;;4.70;3.10;;;;;;;9.48;88.62;98417.31;4890493;28;102846;-77
2021/05/24 05:55:21;;;;;;;4.73;3.27;;;;;;;9.43;89.26;98414.13;4889932;28;102661;-76
2021/05/24 05:57:55;;;;;;;3.33;2.97;;;;;;;9.77;87.76;98413.38;4881832;28;102602;-77
2021/05/24 06:00:24;;;;;;;4.30;2.73;;;;;;;9.76;89.65;98410.88;4889685;28;103336;-75
2021/05/24 06:02:51;;;;;;;3.13;2.77;;;;;;;9.71;89.10;98402.44;4888631;28;102548;-77
2021/05/24 06:05:19;;;;;;;4.10;3.10;;;;;;;9.91;88.37;98400.00;4876250;28;102503;-75
2021/05/24 06:07:47;;;;;;;5.13;3.00;;;;;;;9.90;87.19;98400.13;4863322;28;102559;-76
2021/05/24 06:10:16;;;;;;;4.30;3.37;;;;;;;9.84;89.13;98388.25;4869074;28;102851;-76
2021/05/24 06:12:46;;;;;;;3.53;3.00;;;;;;;9.97;88.81;98388.16;4874386;28;102844;-75
2021/05/24 06:15:17;;;;;;;4.27;3.13;;;;;;;10.03;88.36;98392.97;4891602;28;102798;-75
2021/05/24 06:17:45;;;;;;;3.57;2.83;;;;;;;10.07;87.09;98389.16;4876443;28;102930;-75
2021/05/24 06:20:14;;;;;;;4.47;3.23;;;;;;;10.29;86.10;98396.34;4886267;28;102292;-75
2021/05/24 06:22:41;;;;;;;5.20;2.50;;;;;;;10.64;84.88;98394.47;4873359;28;103092;-75
2021/05/24 06:25:11;;;;;;;2.83;2.53;;;;;;;10.83;83.06;98400.03;4867395;28;102693;-76
2021/05/24 06:27:39;;;;;;;2.63;2.33;;;;;;;11.01;83.26;98403.84;4881828;28;102532;-76
2021/05/24 06:30:10;;;;;;;2.50;2.03;;;;;;;11.28;81.89;98402.66;4888140;28;102672;-75
2021/05/24 06:32:38;;;;;;;2.37;1.80;;;;;;;11.49;80.63;98403.56;4885462;28;102586;-75
2021/05/24 06:35:07;;;;;;;4.83;2.60;;;;;;;11.34;81.50;98395.03;4880566;28;102659;-75
2021/05/24 06:37:35;;;;;;;4.30;3.00;;;;;;;11.49;80.40;98399.13;4881053;28;102429;-76
2021/05/24 06:40:04;;;;;;;3.67;2.47;;;;;;;11.52;80.67;98393.56;4884782;28;102558;-76
2021/05/24 06:42:32;;;;;;;2.37;2.17;;;;;;;11.21;81.84;98398.78;4880994;28;102596;-77
2021/05/24 06:44:59;;;;;;;3.77;2.50;;;;;;;11.31;80.77;98405.88;4888592;28;103071;-75
2021/05/24 06:47:27;;;;;;;2.53;2.30;;;;;;;11.74;79.88;98392.69;4888064;28;102700;-76
2021/05/24 06:49:56;;;;;;;2.67;2.47;;;;;;;11.98;78.57;98392.50;4882581;28;103517;-75
2021/05/24 06:52:23;;;;;;;2.57;2.20;;;;;;;11.96;78.83;98397.06;4858488;28;103780;-76
2021/05/24 06:54:51;;;;;;;2.70;2.20;;;;;;;12.18;78.47;98397.00;4878764;28;102445;-75
2021/05/24 06:57:18;;;;;;;3.10;2.17;;;;;;;12.26;75.82;98389.25;4888768;28;102512;-76
2021/05/24 06:59:46;;;;;;;3.23;1.83;;;;;;;12.45;77.22;98385.88;4870468;28;106956;-77
2021/05/24 07:02:15;;;;;;;2.00;1.67;;;;;;;12.68;76.12;98387.41;4885198;28;103207;-78
2021/05/24 07:04:43;;;;;;;1.83;1.70;;;;;;;12.74;75.84;98389.53;4847358;28;102538;-75
2021/05/24 07:07:12;;;;;;;3.33;2.10;;;;;;;12.93;75.03;98389.63;4882004;28;103315;-76
2021/05/24 07:09:40;;;;;;;2.10;1.80;;;;;;;13.15;74.84;98384.16;4864579;28;103203;-76
2021/05/24 07:12:09;;;;;;;2.60;2.10;;;;;;;13.32;74.56;98383.53;4879058;28;103138;-76
2021/05/24 07:14:43;;;;;;;2.87;1.77;;;;;;;13.51;72.56;98384.53;4883209;28;103166;-75
2021/05/24 07:17:12;;;;;;;2.27;1.73;;;;;;;13.53;72.29;98387.91;4876026;28;103023;-76
2021/05/24 07:19:40;;;;;;;3.97;2.43;;;;;;;13.40;71.21;98388.13;4890417;28;102315;-77
2021/05/24 07:22:07;;;;;;;3.10;2.03;;;;;;;13.70;70.90;98390.72;4889398;28;103109;-77
2021/05/24 07:24:44;;;;;;;2.87;1.77;;;;;;;13.83;70.96;98387.81;4872815;28;102376;-77
2021/05/24 07:27:11;;;;;;;4.33;2.03;;;;;;;13.95;69.36;98384.00;4888017;28;102411;-77
2021/05/24 07:29:39;;;;;;;2.20;1.50;;;;;;;13.88;69.06;98377.59;4885428;28;103456;-76
2021/05/24 07:32:10;;;;;;;2.00;1.50;;;;;;;13.94;68.65;98366.44;4882834;28;104783;-78
2021/05/24 07:34:37;;;;;;;2.00;1.57;;;;;;;14.26;69.47;98366.13;4863884;28;102550;-76
2021/05/24 07:40:08;;;;;;;1.97;1.70;;;;;;;14.48;66.17;98361.34;4914344;23;104111;-79
2021/05/24 07:42:41;;;;;;;1.77;1.63;;;;;;;14.39;65.95;98356.91;4896317;28;103620;-78
2021/05/24 07:45:17;;;;;;;2.53;1.40;;;;;;;14.47;64.38;98365.00;4874277;28;102874;-79
2021/05/24 07:47:44;;;;;;;2.33;1.30;;;;;;;14.68;65.32;98356.00;4898886;28;102531;-77
2021/05/24 07:50:40;;;;;;;1.87;1.40;;;;;;;14.90;63.30;98361.81;4886974;28;107042;-78
2021/05/24 07:53:11;;;;;;;4.17;1.40;;;;;;;15.14;64.16;98353.28;4878770;23;102771;-75
2021/05/24 07:55:40;;;;;;;3.27;2.00;;;;;;;14.80;63.91;98346.84;4857045;28;102468;-75
2021/05/24 07:58:07;;;;;;;3.00;1.50;;;;;;;14.87;64.79;98351.47;4880502;28;102715;-75
2021/05/24 08:00:35;;;;;;;3.93;1.60;;;;;;;14.99;64.73;98352.94;4868571;28;103242;-76
2021/05/24 08:03:03;;;;;;;3.40;2.10;;;;;;;14.98;64.62;98350.44;4869089;28;102525;-75
2021/05/24 08:05:31;;;;;;;2.27;1.70;;;;;;;14.84;63.95;98345.59;4867379;28;102986;-75
2021/05/24 08:07:59;;;;;;;2.33;1.57;;;;;;;14.66;64.78;98334.88;4866102;28;103252;-75
2021/05/24 08:10:26;;;;;;;3.00;1.57;;;;;;;14.85;64.75;98337.44;4861791;28;102558;-75
2021/05/24 08:12:55;;;;;;;3.10;1.43;;;;;;;14.86;64.13;98338.28;4867874;28;103092;-77
2021/05/24 08:15:29;;;;;;;2.73;1.47;;;;;;;15.06;64.84;98334.56;4867409;28;102705;-75
2021/05/24 08:17:59;;;;;;;4.83;1.83;;;;;;;15.39;64.03;98328.63;4863407;28;103004;-76
2021/05/24 08:20:27;;;;;;;2.13;1.40;;;;;;;15.57;64.65;98328.69;4867883;28;103283;-75
2021/05/24 08:22:54;;;;;;;2.60;1.57;;;;;;;15.59;63.74;98322.22;4868979;28;103107;-76
2021/05/24 08:25:22;;;;;;;2.80;1.70;;;;;;;15.53;63.20;98325.50;4878070;28;102499;-78
2021/05/24 08:27:50;;;;;;;1.87;1.17;;;;;;;15.79;62.26;98319.41;4863491;28;102730;-75
2021/05/24 08:30:30;;;;;;;3.43;1.70;;;;;;;15.67;61.61;98326.78;4848503;29;103339;-75
2021/05/24 08:32:58;;;;;;;3.07;1.50;;;;;;;15.88;61.02;98315.84;4854908;28;103131;-75
2021/05/24 08:35:26;;;;;;;1.43;1.30;;;;;;;16.46;61.42;98313.44;4868973;28;102562;-77
2021/05/24 08:37:53;;;;;;;1.57;1.27;;;;;;;16.45;61.87;98309.13;4868471;28;103062;-75
2021/05/24 08:40:22;;;;;;;2.80;1.47;;;;;;;15.88;61.13;98308.69;4868397;28;102465;-75
2021/05/24 08:42:50;;;;;;;1.80;1.27;;;;;;;16.40;62.03;98290.91;4868643;28;103287;-76
2021/05/24 08:45:18;;;;;;;2.37;1.13;;;;;;;16.76;60.92;98287.16;4868281;28;102610;-76
2021/05/24 08:47:48;;;;;;;3.10;1.40;;;;;;;17.00;59.87;98290.94;4869359;28;103050;-75
2021/05/24 08:50:17;;;;;;;1.10;1.00;;;;;;;17.51;58.66;98295.28;4867434;28;103413;-75
2021/05/24 08:52:45;;;;;;;1.53;1.10;;;;;;;17.65;57.78;98292.00;4873258;28;102686;-75
2021/05/24 08:55:14;;;;;;;2.47;1.37;;;;;;;17.90;57.34;98294.53;4885830;28;102996;-76
2021/05/24 08:57:43;;;;;;;2.27;1.10;;;;;;;18.51;56.41;98287.81;4889447;28;102518;-76
2021/05/24 09:00:14;;;;;;;2.93;1.10;;;;;;;18.41;55.34;98284.47;4887366;28;102808;-76
2021/05/24 09:02:46;;;;;;;2.07;1.20;;;;;;;18.86;53.01;98286.53;4886072;28;102607;-75
2021/05/24 09:05:15;;;;;;;1.07;0.97;;;;;;;19.38;52.42;98276.09;4875530;28;102873;-77
2021/05/24 09:07:49;;;;;;;2.30;1.47;;;;;;;18.84;52.22;98267.97;4878464;28;103223;-75
2021/05/24 09:10:18;;;;;;;1.73;1.08;;;;;;;18.96;52.12;98266.59;4885210;28;105003;-75
2021/05/24 09:12:45;;;;;;;2.78;1.40;;;;;;;18.81;50.21;98262.97;4887676;28;102734;-75
2021/05/24 09:15:15;;;;;;;1.48;1.13;;;;;;;18.61;53.17;98266.22;4886635;28;102635;-75
2021/05/24 09:17:46;;;;;;;1.95;1.20;;;;;;;19.13;53.87;98267.34;4885711;28;102510;-75
2021/05/24 09:20:28;;;;;;;2.15;1.08;;;;;;;19.22;52.42;98252.06;4886194;28;103958;-75
2021/05/24 09:23:08;;;;;;;1.70;1.20;;;;;;;19.19;52.37;98249.75;4886917;28;102562;-76
2021/05/24 09:25:46;;;;;;;2.95;1.10;;;;;;;19.60;52.20;98248.50;4885240;28;102595;-74
2021/05/24 09:28:27;;;;;;;2.60;1.38;;;;;;;19.82;51.97;98253.03;4886116;28;102509;-76
2021/05/24 09:30:57;;;;;;;1.08;0.98;;;;;;;19.88;51.00;98252.31;4885283;28;103361;-76
2021/05/24 09:33:25;;;;;;;1.73;1.25;;;;;;;20.09;50.49;98244.44;4884107;28;104802;-77
2021/05/24 09:35:55;;;;;;;2.78;1.00;;;;;;;19.32;52.45;98256.19;4880493;28;102537;-75
2021/05/24 09:38:24;;;;;;;1.83;1.05;;;;;;;19.83;51.57;98241.31;4868007;28;102604;-75
2021/05/24 09:40:54;;;;;;;1.20;1.02;;;;;;;19.49;52.28;98240.88;4869434;28;104315;-75
2021/05/24 09:43:32;;;;;;;2.28;1.10;;;;;;;19.88;50.92;98238.91;4885068;28;102538;-76
2021/05/24 09:46:12;;;;;;;1.25;1.02;;;;;;;20.32;50.84;98244.44;4883443;28;102693;-75
2021/05/24 09:48:41;;;;;;;4.32;1.38;;;;;;;18.61;53.50;98232.25;4901334;28;102741;-75
2021/05/24 09:51:13;;;;;;;2.58;1.30;;;;;;;19.04;52.91;98241.63;4903512;28;106581;-75
2021/05/24 09:53:42;;;;;;;2.65;1.27;;;;;;;19.43;52.63;98225.53;4887738;28;103698;-75
2021/05/24 09:56:16;;;;;;;1.90;1.23;;;;;;;18.37;54.56;98230.47;4885165;28;103354;-75
2021/05/24 09:58:43;;;;;;;1.27;1.17;;;;;;;19.17;55.64;98219.66;4886410;28;102488;-75
2021/05/24 10:01:18;;;;;;;2.83;1.33;;;;;;;19.60;52.47;98217.19;4886032;28;103013;-75
2021/05/24 10:03:46;;;;;;;1.15;1.00;;;;;;;19.86;51.88;98216.00;4885812;28;103206;-75
2021/05/24 10:06:15;;;;;;;3.83;1.27;;;;;;;20.29;51.90;98214.44;4884667;28;103322;-75
2021/05/24 10:08:43;;;;;;;3.28;1.30;;;;;;;19.93;51.15;98215.06;4888128;28;102390;-75
2021/05/24 10:11:11;;;;;;;2.45;1.20;;;;;;;19.91;49.98;98209.06;4889210;28;102570;-75
2021/05/24 10:13:39;;;;;;;1.83;1.02;;;;;;;20.42;50.89;98198.53;4889428;28;103518;-75
2021/05/24 10:16:11;;;;;;;1.13;1.00;;;;;;;20.38;51.12;98189.22;4890565;28;103176;-77
2021/05/24 10:18:40;;;;;;;2.10;1.25;;;;;;;20.29;51.47;98182.25;4889782;28;102542;-75
2021/05/24 10:21:09;;;;;;;2.60;1.10;;;;;;;19.96;50.05;98185.22;4889026;28;103391;-75
2021/05/24 10:23:38;;;;;;;2.35;1.10;;;;;;;20.01;50.62;98184.69;4889546;28;102602;-75
2021/05/24 10:26:08;;;;;;;2.60;1.20;;;;;;;19.92;51.19;98175.06;4887467;28;103263;-76
2021/05/24 10:28:38;;;;;;;2.33;1.40;;;;;;;20.20;51.44;98178.81;4879550;28;102552;-77
2021/05/24 10:31:18;;;;;;;1.75;1.00;;;;;;;20.19;50.68;98175.28;4888404;28;102855;-75
2021/05/24 10:33:49;;;;;;;1.80;1.02;;;;;;;20.26;50.58;98174.59;4875987;28;103483;-77
2021/05/24 10:36:20;;;;;;;2.08;1.05;;;;;;;20.29;52.05;98175.06;4887377;28;103091;-75
2021/05/24 10:39:11;;;;;;;1.05;0.90;;;;;;;20.01;51.22;98172.13;4888506;28;102712;-76
2021/05/24 10:41:50;;;;;;;1.77;1.35;;;;;;;19.72;51.44;98180.09;4886297;28;104988;-75
2021/05/24 10:44:20;;;;;;;1.67;1.00;;;;;;;19.69;53.36;98169.75;4887832;28;102851;-77
2021/05/24 10:46:49;;;;;;;2.33;1.42;;;;;;;19.54;53.40;98163.50;4887461;28;103057;-76
2021/05/24 10:49:23;;;;;;;1.83;1.05;;;;;;;19.99;52.96;98173.31;4887070;28;102430;-76
2021/05/24 10:51:58;;;;;;;2.08;1.40;;;;;;;19.73;53.51;98173.75;4886012;28;102748;-75
2021/05/24 10:54:42;;;;;;;3.05;1.50;;;;;;;19.96;53.96;98158.41;4887189;28;103535;-75
2021/05/24 10:57:19;;;;;;;2.15;1.30;;;;;;;19.18;54.36;98167.75;4885807;28;103338;-75
2021/05/24 11:00:06;;;;;;;2.22;1.20;;;;;;;19.94;52.91;98159.63;4879242;28;102524;-75
2021/05/24 11:02:39;;;;;;;1.63;1.50;;;;;;;20.15;52.09;98152.50;4874335;28;103270;-75
2021/05/24 11:05:28;;;;;;;2.60;1.50;;;;;;;20.16;53.33;98156.88;4885476;28;104849;-75
2021/05/24 11:07:58;;;;;;;1.98;1.50;;;;;;;20.19;52.24;98150.31;4881206;28;102552;-77
2021/05/24 11:10:48;;;;;;;2.55;1.92;;;;;;;19.91;51.72;98138.53;4882405;28;102498;-77
2021/05/24 11:13:29;;;;;;;2.15;1.40;;;;;;;18.48;56.71;98149.06;4868880;28;103202;-77
2021/05/24 11:16:12;;;;;;;1.52;1.00;;;;;;;19.20;55.75;98139.78;4868847;28;102727;-76
2021/05/24 11:18:43;;;;;;;2.65;1.35;;;;;;;18.99;56.47;98132.41;4866288;28;102538;-75
2021/05/24 11:21:23;;;;;;;1.85;1.20;;;;;;;19.79;56.43;98135.47;4869322;28;103421;-77
2021/05/24 11:26:46;;;;;;;2.58;1.38;;;;;;;20.96;52.25;98124.72;4874969;28;103060;-75
2021/05/24 11:29:15;;;;;;;2.45;1.70;;;;;;;20.59;53.42;98114.16;4886559;28;102996;-75
2021/05/24 11:31:53;;;;;;;2.70;1.20;;;;;;;21.59;49.73;98115.84;4887770;28;102574;-75
2021/05/24 11:34:29;;;;;;;1.27;1.08;;;;;;;21.76;49.99;98116.38;4887351;28;103503;-76
2021/05/24 11:36:58;;;;;;;1.02;0.93;;;;;;;21.63;49.56;98124.34;4885907;28;102557;-75
2021/05/24 11:39:31;;;;;;;2.28;1.00;;;;;;;21.83;48.77;98119.97;4887552;28;103066;-76
2021/05/24 11:42:02;;;;;;;1.00;0.90;;;;;;;21.85;48.01;98115.22;4886589;28;102576;-75
2021/05/24 11:44:36;;;;;;;2.65;1.35;;;;;;;22.03;47.21;98102.16;4886964;28;102976;-74
2021/05/24 11:47:06;;;;;;;1.48;1.00;;;;;;;22.35;47.48;98084.50;4886476;28;103034;-75